VVTSVVPQ

Guest
Details From VVTS - TAN SON NHAT INTL
To VVPQ - PHU QUOC
Flight Number -
Tags generated
Created
Modified
Stats Distance 175 nm / 324 km
Max Altitude 14,200 ft / 4,328 m
Waypoints 5
Social Downloads 9
Likes 0
Share VATSIM

Download

Looking for another format? Having issues loading an existing format? Contact us
Advertisement - Login to hide

Notes

Basic altitude profile: - Ascent Rate: 2500ft/min - Ascent Speed: 250kts - Cruise Altitude: 35000ft - Cruise Speed: 420kts - Descent Rate: 1500ft/min - Descent Speed: 250kts Options: - Use NATs: yes - Use PACOTS: no - Use low airways: yes - Use high airways: yes

Route

VVTS TSN W8 BAVEN VVPQ

ID Type Via Altitude Latitude Longitude Leg Dist Tot Dist Heading (true) Name
O VVTS APT - 0 ft / 0 m 10.81875˚ 106.65173˚ - 0 nm - TAN SON NHAT INTL
TSN VOR - 100 ft / 30 m 10.81643˚ 106.64558˚ 0 nm 0 nm 249° / 249° TANSONNHAT VOR-DME
RG NDB W8 (AWY-LO) 14,200 ft / 4,328 m 9.94972˚ 105.13361˚ 103 nm 103 nm 240° / 240° RACHGIA NDB
BAVEN FIX W8 (AWY-LO) 8,100 ft / 2,469 m 10.07472˚ 104.59556˚ 32 nm 136 nm 283° / 283° -
O VVPQ APT - 0 ft / 0 m 10.22703˚ 103.96717˚ 38 nm 174 nm 284° / 284° PHU QUOC

Altitude Profile

Advertisement - Login to hide

Weather


0- 5 10 15 20 25 30 35+ Temperature / ° C

Clouds and Precipitation
Forecast for 2018-05-27 00:00 UTC. Updated 3 hours ago

Ground ~20,000 ft ~40,000 ft Winds

VVTS

Details ICAO VVTS (SGN)
Name TAN SON NHAT INTL
Region Vietnam
Timezone Asia/Ho_Chi_Minh (UTC+7.0)
Stats Elevation 33 ft / 10 m (AMSL)
Location 10.818750° 106.651735°
Runways 2
Magnetic Variation 0.500° W

METAR

VVTS 270200Z 03005KT 350V060 9999 FEW017 30/26 Q1010 NOSIG

Decode

TAF

TAF VVTS 262300Z 2700/2806 14006KT 9999 SCT017 TEMPO 2707/2710 14016G28KT 1500 +TSRA BKN013 SCT015CB

Decode

Departure Runways

ID Width Length Bearing (true) Bearing (mag) Surface Threshold Offset Overrun Length
07L 148 ft / 45 m 9,998 ft / 3,047 m 69.00° 69.50° Asphalt 0 ft / 0 m 1,040 ft / 317 m
07R 148 ft / 45 m 12,617 ft / 3,846 m 68.90° 69.40° Concrete 2,543 ft / 775 m 863 ft / 263 m
25L 148 ft / 45 m 12,617 ft / 3,846 m 248.90° 249.40° Concrete 0 ft / 0 m 1,027 ft / 313 m
25R 148 ft / 45 m 9,998 ft / 3,047 m 249.00° 249.50° Asphalt 0 ft / 0 m 1,053 ft / 321 m

VVPQ

Details ICAO VVPQ
Name PHU QUOC
Region Vietnam
Timezone Asia/Ho_Chi_Minh (UTC+7.0)
Stats Elevation 23 ft / 7 m (AMSL)
Location 10.227026° 103.967171°
Runways 1
Magnetic Variation 0.370° W

METAR

VVPQ 270200Z 08008KT 040V110 CAVOK 30/24 Q1010 NOSIG

Decode

TAF

TAF VVPQ 262300Z 2700/2724 11006KT 9999 SCT015 TEMPO 2700/2706 5000 SHRA SCT015 FEW017CB TEMPO 2718/2724 3000 TSRA BKN013 SCT015CB

Decode

Destination Runways

ID Width Length Bearing (true) Bearing (mag) Surface Threshold Offset Overrun Length
08 95 ft / 29 m 6,897 ft / 2,102 m 79.09° 79.46° Asphalt 0 ft / 0 m 0 ft / 0 m
26 95 ft / 29 m 6,897 ft / 2,102 m 259.10° 259.47° Asphalt 0 ft / 0 m 0 ft / 0 m

Popular Alternatives